createdAt,value
2023-04-15T00:03:18.979Z,101403.29
2023-04-15T00:06:48.695Z,101400.06
2023-04-15T00:10:18.275Z,101401.70
2023-04-15T00:13:47.594Z,101406.24
2023-04-15T00:16:56.918Z,101405.77
2023-04-15T00:20:26.548Z,101398.67
2023-04-15T00:23:55.796Z,101400.29
2023-04-15T00:27:14.254Z,101399.46
2023-04-15T00:30:43.458Z,101398.80
2023-04-15T00:34:12.814Z,101401.11
2023-04-15T00:37:42.592Z,101400.44
2023-04-15T00:41:06.461Z,101399.93
2023-04-15T00:44:35.880Z,101395.23
2023-04-15T00:48:05.082Z,101392.30
2023-04-15T00:51:33.890Z,101392.83
2023-04-15T00:55:03.198Z,101389.52
2023-04-15T00:58:15.494Z,101389.70
2023-04-15T01:01:44.891Z,101386.75
2023-04-15T01:05:14.255Z,101379.98
2023-04-15T01:08:43.547Z,101380.67
2023-04-15T01:12:13.297Z,101382.41
2023-04-15T01:15:43.141Z,101380.52
2023-04-15T01:19:05.214Z,101382.59
2023-04-15T01:22:34.645Z,101380.86
2023-04-15T01:26:09.589Z,101382.94
2023-04-15T01:29:38.756Z,101382.94
2023-04-15T01:33:08.573Z,101384.48
2023-04-15T01:36:40.678Z,101385.19
2023-04-15T01:40:10.135Z,101384.14
2023-04-15T01:43:39.562Z,101377.84
2023-04-15T01:46:42.351Z,101379.20
2023-04-15T01:50:04.181Z,101380.23
2023-04-15T01:53:33.297Z,101375.84
2023-04-15T01:57:02.772Z,101381.73
2023-04-15T02:00:32.611Z,101380.11
2023-04-15T02:04:02.382Z,101377.14
2023-04-15T02:07:31.947Z,101376.77
2023-04-15T02:10:43.450Z,101378.83
2023-04-15T02:13:52.922Z,101372.70
2023-04-15T02:17:22.862Z,101370.92
2023-04-15T02:20:52.586Z,101368.77
2023-04-15T02:24:01.802Z,101367.13
2023-04-15T02:27:31.096Z,101372.25
2023-04-15T02:31:00.253Z,101367.61
2023-04-15T02:34:29.803Z,101365.30
2023-04-15T02:37:51.788Z,101361.59
2023-04-15T02:40:42.049Z,101364.98
2023-04-15T02:44:03.803Z,101367.59
2023-04-15T02:47:33.404Z,101373.27
2023-04-15T02:51:02.921Z,101375.86
2023-04-15T02:54:14.783Z,101378.56
2023-04-15T02:57:34.095Z,101379.08
2023-04-15T03:01:03.407Z,101385.29
2023-04-15T03:04:32.842Z,101383.66
2023-04-15T03:07:42.136Z,101387.38
2023-04-15T03:11:11.693Z,101389.56
2023-04-15T03:14:40.825Z,101396.59
2023-04-15T03:18:10.219Z,101398.09
2023-04-15T03:21:39.730Z,101408.11
2023-04-15T03:24:59.551Z,101411.47
2023-04-15T03:28:28.666Z,101421.45
2023-04-15T03:31:40.549Z,101428.79
2023-04-15T03:35:09.746Z,101432.51
2023-04-15T03:38:38.921Z,101432.52
2023-04-15T03:42:07.953Z,101444.83
2023-04-15T03:45:37.874Z,101449.92
2023-04-15T03:49:08.840Z,101453.67
2023-04-15T03:52:10.788Z,101458.35
2023-04-15T03:55:39.900Z,101461.98
2023-04-15T03:59:08.692Z,101464.94
2023-04-15T04:02:30.232Z,101468.59
2023-04-15T04:05:59.116Z,101469.19
2023-04-15T04:09:16.781Z,101471.67
2023-04-15T04:12:35.634Z,101478.31
2023-04-15T04:16:05.131Z,101483.39
2023-04-15T04:19:34.410Z,101486.38
2023-04-15T04:23:07.318Z,101488.85
2023-04-15T04:26:36.638Z,101489.21
2023-04-15T04:29:57.217Z,101492.92
2023-04-15T04:33:26.226Z,101491.79
2023-04-15T04:36:55.572Z,101489.38
2023-04-15T04:40:24.177Z,101492.57
2023-04-15T04:43:53.698Z,101490.74
2023-04-15T04:47:23.351Z,101494.61
2023-04-15T04:50:32.571Z,101498.69
2023-04-15T04:54:03.474Z,101494.61
2023-04-15T04:57:33.428Z,101498.69
2023-04-15T05:01:02.979Z,101494.18
2023-04-15T05:04:32.481Z,101497.45
2023-04-15T05:08:02.015Z,101499.00
2023-04-15T05:11:14.139Z,101496.84
2023-04-15T05:14:33.992Z,101499.85
2023-04-15T05:18:04.001Z,101493.70
2023-04-15T05:21:12.009Z,101496.70
2023-04-15T05:24:41.589Z,101495.23
2023-04-15T05:27:49.462Z,101499.27
2023-04-15T05:31:18.691Z,101502.45
2023-04-15T05:34:47.884Z,101500.02
2023-04-15T05:38:17.336Z,101497.08
2023-04-15T05:41:39.876Z,101494.09
2023-04-15T05:44:46.008Z,101492.39
2023-04-15T05:48:04.515Z,101484.91
2023-04-15T05:51:33.951Z,101481.62
2023-04-15T05:55:03.219Z,101478.62
2023-04-15T05:58:33.283Z,101474.46
2023-04-15T06:02:02.479Z,101471.85
2023-04-15T06:05:31.718Z,101474.98
2023-04-15T06:09:01.569Z,101473.39
2023-04-15T06:12:31.359Z,101470.90
2023-04-15T06:15:59.637Z,101478.07
2023-04-15T06:19:29.530Z,101480.88
2023-04-15T06:22:58.980Z,101479.01
2023-04-15T06:26:28.318Z,101475.75
2023-04-15T06:29:57.778Z,101473.68
2023-04-15T06:33:27.031Z,101474.02
2023-04-15T06:36:56.232Z,101472.16
2023-04-15T06:40:25.582Z,101470.87
2023-04-15T06:43:54.915Z,101474.03
2023-04-15T06:47:17.138Z,101473.89
2023-04-15T06:50:46.715Z,101473.94
2023-04-15T06:54:15.794Z,101471.37
2023-04-15T06:57:45.402Z,101471.46
2023-04-15T07:01:14.812Z,101473.85
2023-04-15T07:04:33.311Z,101471.43
2023-04-15T07:07:44.896Z,101469.13
2023-04-15T07:11:14.504Z,101471.14
2023-04-15T07:14:43.972Z,101476.76
2023-04-15T07:18:13.443Z,101480.59
2023-04-15T07:21:42.810Z,101478.96
2023-04-15T07:25:12.120Z,101479.45
2023-04-15T07:28:41.492Z,101479.91
2023-04-15T07:32:03.759Z,101486.43
2023-04-15T07:35:33.403Z,101485.56
2023-04-15T07:39:03.358Z,101489.39
2023-04-15T07:42:33.479Z,101488.02
2023-04-15T07:45:56.360Z,101494.63
2023-04-15T07:49:25.580Z,101503.32
2023-04-15T07:52:45.293Z,101504.42
2023-04-15T07:56:08.149Z,101505.66
2023-04-15T07:59:37.693Z,101509.71
2023-04-15T08:03:07.118Z,101514.10
2023-04-15T08:06:36.866Z,101514.15
2023-04-15T08:10:06.316Z,101518.13
2023-04-15T08:13:26.182Z,101515.96
2023-04-15T08:17:04.639Z,101517.82
2023-04-15T08:20:27.515Z,101517.28
2023-04-15T08:23:49.707Z,101520.05
2023-04-15T08:27:13.676Z,101522.13
2023-04-15T08:36:00.081Z,101522.63
2023-04-15T08:39:29.501Z,101528.77
2023-04-15T08:43:10.967Z,101533.23
2023-04-15T08:46:41.024Z,101534.02
2023-04-15T08:50:10.771Z,101535.31
2023-04-15T08:53:40.288Z,101536.45
2023-04-15T08:56:53.425Z,101533.92
2023-04-15T09:00:23.053Z,101535.20
2023-04-15T09:03:52.812Z,101535.99
2023-04-15T09:07:22.340Z,101535.79
2023-04-15T09:10:51.783Z,101535.33
2023-04-15T09:14:21.140Z,101542.91
2023-04-15T09:18:00.134Z,101543.95
2023-04-15T09:21:29.652Z,101542.56
2023-04-15T09:24:59.020Z,101539.11
2023-04-15T09:28:12.001Z,101542.14
2023-04-15T09:31:41.453Z,101542.75
2023-04-15T09:35:19.675Z,101542.48
2023-04-15T09:38:49.190Z,101541.54
2023-04-15T09:42:21.886Z,101544.23
2023-04-15T09:45:40.795Z,101538.27
2023-04-15T09:49:22.853Z,101536.28
2023-04-15T09:52:45.498Z,101536.55
2023-04-15T09:56:14.815Z,101532.45
2023-04-15T09:59:24.257Z,101529.01
2023-04-15T10:02:43.261Z,101530.95
2023-04-15T10:06:12.802Z,101527.52
2023-04-15T10:09:42.191Z,101527.09
2023-04-15T10:13:11.544Z,101521.22
2023-04-15T10:16:41.159Z,101526.20
2023-04-15T10:20:09.368Z,101527.06
2023-04-15T10:23:21.892Z,101529.48
2023-04-15T10:26:51.187Z,101530.91
2023-04-15T10:30:20.519Z,101533.54
2023-04-15T10:33:50.254Z,101533.41
2023-04-15T10:36:59.973Z,101536.07
2023-04-15T10:40:27.810Z,101535.44
2023-04-15T10:43:47.191Z,101536.23
2023-04-15T10:47:16.366Z,101536.67
2023-04-15T10:50:45.737Z,101543.32
2023-04-15T10:54:11.437Z,101539.48
2023-04-15T10:57:43.591Z,101546.09
2023-04-15T11:01:13.372Z,101550.82
2023-04-15T11:04:35.804Z,101557.48
2023-04-15T11:08:26.682Z,101556.88
2023-04-15T11:11:48.135Z,101555.80
2023-04-15T11:15:16.222Z,101555.91
2023-04-15T11:19:00.300Z,101561.41
2023-04-15T11:22:29.819Z,101561.02
2023-04-15T11:26:04.998Z,101567.23
2023-04-15T11:29:35.010Z,101576.20
2023-04-15T11:33:08.102Z,101575.23
2023-04-15T11:36:37.044Z,101573.40
2023-04-15T11:40:06.284Z,101572.75
2023-04-15T11:43:51.190Z,101572.95
2023-04-15T11:47:20.330Z,101572.38
2023-04-15T11:50:15.860Z,101569.73
2023-04-15T11:54:04.489Z,101576.42
2023-04-15T11:57:10.485Z,101578.17
2023-04-15T12:00:45.763Z,101575.74
2023-04-15T12:04:25.480Z,101581.79
2023-04-15T12:07:55.752Z,101582.51
2023-04-15T12:11:06.831Z,101580.83
2023-04-15T12:14:35.632Z,101580.14
2023-04-15T12:18:05.953Z,101577.98
2023-04-15T12:21:15.683Z,101585.40
2023-04-15T12:24:45.128Z,101584.38
2023-04-15T12:28:14.383Z,101593.22
2023-04-15T12:31:43.841Z,101588.55
2023-04-15T12:35:13.363Z,101590.93
2023-04-15T12:38:41.073Z,101595.59
2023-04-15T12:42:10.400Z,101598.90
2023-04-15T12:45:10.538Z,101590.61
2023-04-15T12:48:40.317Z,101588.52
2023-04-15T12:52:09.818Z,101588.81
2023-04-15T12:55:38.960Z,101594.66
2023-04-15T12:59:04.847Z,101593.89
2023-04-15T13:02:25.134Z,101592.94
2023-04-15T13:05:54.641Z,101588.52
2023-04-15T13:09:24.120Z,101589.48
2023-04-15T13:12:34.104Z,101596.86
2023-04-15T13:16:04.004Z,101604.23
2023-04-15T13:19:07.162Z,101603.50
2023-04-15T13:22:36.378Z,101601.89
2023-04-15T13:26:05.562Z,101602.17
2023-04-15T13:29:23.802Z,101605.79
2023-04-15T13:32:53.267Z,101605.91
2023-04-15T13:36:22.561Z,101611.75
2023-04-15T13:39:51.893Z,101609.46
2023-04-15T13:43:20.644Z,101608.52
2023-04-15T13:46:49.690Z,101607.76
2023-04-15T13:50:18.756Z,101613.92
2023-04-15T13:53:38.984Z,101614.16
2023-04-15T13:57:00.736Z,101612.02
2023-04-15T14:00:29.824Z,101615.40
2023-04-15T14:03:59.183Z,101622.55
2023-04-15T14:07:28.034Z,101616.74
2023-04-15T14:10:38.073Z,101620.70
2023-04-15T14:14:07.574Z,101619.77
2023-04-15T14:17:37.452Z,101619.86
2023-04-15T14:21:06.817Z,101623.25
2023-04-15T14:24:15.987Z,101621.06
2023-04-15T14:27:35.159Z,101624.02
2023-04-15T14:31:04.378Z,101627.16
2023-04-15T14:34:33.473Z,101629.71
2023-04-15T14:38:02.700Z,101630.74
2023-04-15T14:41:32.355Z,101632.32
2023-04-15T14:45:01.692Z,101631.13
2023-04-15T14:48:31.065Z,101630.63
2023-04-15T14:51:01.542Z,101633.48
2023-04-15T14:53:37.431Z,101636.11
2023-04-15T14:56:06.881Z,101637.23
2023-04-15T14:58:38.710Z,101637.98
2023-04-15T15:01:15.996Z,101639.40
2023-04-15T15:03:45.413Z,101639.92
2023-04-15T15:06:37.369Z,101638.95
2023-04-15T15:09:09.611Z,101639.15
2023-04-15T15:11:41.869Z,101640.57
2023-04-15T15:14:39.486Z,101640.44
2023-04-15T15:17:12.336Z,101644.92
2023-04-15T15:19:41.645Z,101644.27
2023-04-15T15:22:10.923Z,101644.52
2023-04-15T15:24:39.934Z,101644.27
2023-04-15T15:27:10.745Z,101647.14
2023-04-15T15:29:50.109Z,101650.66
2023-04-15T15:32:22.684Z,101653.47
2023-04-15T15:34:54.495Z,101653.67
2023-04-15T15:37:23.663Z,101659.25
2023-04-15T15:40:02.173Z,101658.91
2023-04-15T15:42:43.845Z,101657.20
2023-04-15T15:45:17.454Z,101660.38
2023-04-15T15:47:47.029Z,101664.25
2023-04-15T15:50:19.193Z,101664.27
2023-04-15T15:52:48.310Z,101668.47
2023-04-15T15:55:17.747Z,101676.70
2023-04-15T15:57:47.667Z,101675.88
2023-04-15T16:00:16.863Z,101680.77
2023-04-15T16:05:17.492Z,101688.25
2023-04-15T16:07:49.332Z,101687.01
2023-04-15T16:10:18.378Z,101690.41
2023-04-15T16:12:47.502Z,101694.03
2023-04-15T16:15:19.687Z,101696.73
2023-04-15T16:17:48.935Z,101693.56
2023-04-15T16:20:18.651Z,101694.23
2023-04-15T16:22:47.788Z,101696.48
2023-04-15T16:25:17.137Z,101691.55
2023-04-15T16:27:58.780Z,101696.27
2023-04-15T16:30:32.370Z,101698.05
2023-04-15T16:33:00.955Z,101696.38
2023-04-15T16:35:29.815Z,101697.45
2023-04-15T16:37:58.864Z,101700.47
2023-04-15T16:40:37.979Z,101697.94
2023-04-15T16:43:12.322Z,101704.20
2023-04-15T16:45:41.749Z,101705.18
2023-04-15T16:48:10.931Z,101702.21
2023-04-15T16:50:49.119Z,101707.00
2023-04-15T16:53:18.474Z,101706.16
2023-04-15T16:55:50.216Z,101709.96
2023-04-15T16:58:19.531Z,101710.49
2023-04-15T17:01:09.135Z,101713.09
2023-04-15T17:04:01.928Z,101713.53
2023-04-15T17:06:31.856Z,101715.90
2023-04-15T17:09:01.034Z,101709.23
2023-04-15T17:11:30.150Z,101707.09
2023-04-15T17:13:59.356Z,101709.60
2023-04-15T17:16:28.792Z,101710.52
2023-04-15T17:18:58.032Z,101710.55
2023-04-15T17:21:32.960Z,101707.77
2023-04-15T17:24:05.301Z,101704.30
2023-04-15T17:26:34.601Z,101705.35
2023-04-15T17:29:03.917Z,101701.23
2023-04-15T17:31:33.086Z,101700.04
2023-04-15T17:34:12.705Z,101701.09
2023-04-15T17:36:43.183Z,101698.15
2023-04-15T17:39:13.153Z,101698.66
2023-04-15T17:42:05.448Z,101695.84
2023-04-15T17:44:55.005Z,101696.63
2023-04-15T17:47:27.186Z,101694.86
2023-04-15T17:49:58.952Z,101699.75
2023-04-15T17:52:31.330Z,101695.42
2023-04-15T17:55:00.791Z,101695.25
2023-04-15T17:57:29.791Z,101691.61
2023-04-15T18:00:02.355Z,101690.03
2023-04-15T18:02:32.687Z,101693.98
2023-04-15T18:05:46.883Z,101693.22
2023-04-15T18:08:16.274Z,101681.65
2023-04-15T18:11:05.229Z,101679.47
2023-04-15T18:13:34.466Z,101688.05
2023-04-15T18:16:17.122Z,101690.05
2023-04-15T18:18:46.122Z,101688.08
2023-04-15T18:21:14.987Z,101688.69
2023-04-15T18:23:57.538Z,101686.02
2023-04-15T18:26:37.287Z,101689.77
2023-04-15T18:29:09.976Z,101693.20
2023-04-15T18:31:46.279Z,101695.04
2023-04-15T18:34:15.645Z,101699.70
2023-04-15T18:36:44.890Z,101707.98
2023-04-15T18:39:17.731Z,101701.02
2023-04-15T18:41:47.453Z,101693.55
2023-04-15T18:44:16.420Z,101695.77
2023-04-15T18:47:04.341Z,101703.02
2023-04-15T18:50:13.825Z,101703.52
2023-04-15T18:52:52.718Z,101695.61
2023-04-15T18:56:03.887Z,101692.41
2023-04-15T18:59:26.943Z,101684.40
2023-04-15T19:01:51.958Z,101684.88
2023-04-15T19:04:41.700Z,101686.87
2023-04-15T19:07:10.951Z,101688.34
2023-04-15T19:09:43.525Z,101691.39
2023-04-15T19:12:12.591Z,101695.31
2023-04-15T19:14:44.708Z,101701.33
2023-04-15T19:17:30.164Z,101697.27
2023-04-15T19:20:02.497Z,101711.80
2023-04-15T19:22:32.266Z,101699.35
2023-04-15T19:25:00.985Z,101697.69
2023-04-15T19:27:35.550Z,101691.88
2023-04-15T19:30:20.591Z,101688.59
2023-04-15T19:32:49.453Z,101690.88
2023-04-15T19:35:18.556Z,101691.92
2023-04-15T19:37:51.875Z,101697.72
2023-04-15T19:40:24.358Z,101702.24
2023-04-15T19:42:53.555Z,101707.64
2023-04-15T19:45:22.502Z,101712.90
2023-04-15T19:47:51.604Z,101710.33
2023-04-15T19:50:25.887Z,101718.51
2023-04-15T19:52:55.309Z,101721.80
2023-04-15T19:55:24.921Z,101724.94
2023-04-15T19:57:54.095Z,101729.06
2023-04-15T20:00:54.000Z,101733.55
2023-04-15T20:03:23.500Z,101738.86
2023-04-15T20:06:16.241Z,101739.33
2023-04-15T20:08:45.651Z,101742.41
2023-04-15T20:11:17.858Z,101740.06
2023-04-15T20:14:10.263Z,101741.52
2023-04-15T20:16:39.485Z,101741.09
2023-04-15T20:19:14.048Z,101738.77
2023-04-15T20:21:46.468Z,101738.73
2023-04-15T20:24:26.222Z,101745.81
2023-04-15T20:26:55.422Z,101744.75
2023-04-15T20:29:25.115Z,101746.12
2023-04-15T20:31:57.556Z,101745.33
2023-04-15T20:34:28.955Z,101746.82
2023-04-15T20:36:57.932Z,101744.87
2023-04-15T20:40:07.206Z,101742.56
2023-04-15T20:42:45.890Z,101743.04
2023-04-15T20:45:33.564Z,101746.23
2023-04-15T20:48:15.233Z,101750.70
2023-04-15T20:51:38.538Z,101756.90
2023-04-15T20:54:08.538Z,101768.96
2023-04-15T20:56:41.578Z,101776.00
2023-04-15T20:59:10.855Z,101779.13
2023-04-15T21:01:43.655Z,101780.12
2023-04-15T21:04:23.067Z,101784.69
2023-04-15T21:06:53.627Z,101786.34
2023-04-15T21:09:22.590Z,101789.22
2023-04-15T21:12:01.233Z,101788.14
2023-04-15T21:14:31.307Z,101791.60
2023-04-15T21:17:10.602Z,101791.98
2023-04-15T21:19:43.798Z,101793.84
2023-04-15T21:22:16.098Z,101793.80
2023-04-15T21:24:53.425Z,101794.77
2023-04-15T21:27:26.735Z,101791.61
2023-04-15T21:30:01.564Z,101792.79
2023-04-15T21:32:31.606Z,101792.42
2023-04-15T21:35:00.771Z,101795.20
2023-04-15T21:37:29.979Z,101799.39
2023-04-15T21:40:02.945Z,101803.92
2023-04-15T21:42:37.843Z,101808.27
2023-04-15T21:45:07.538Z,101808.16
2023-04-15T21:48:00.832Z,101808.81
2023-04-15T21:50:48.120Z,101810.11
2023-04-15T21:53:19.816Z,101808.86
2023-04-15T21:55:52.575Z,101806.92
2023-04-15T21:58:22.095Z,101809.51
2023-04-15T22:00:51.207Z,101809.36
2023-04-15T22:03:20.444Z,101808.32
2023-04-15T22:06:18.619Z,101812.81
2023-04-15T22:09:11.358Z,101806.18
2023-04-15T22:11:36.952Z,101806.20
2023-04-15T22:14:06.992Z,101801.05
2023-04-15T22:16:38.571Z,101803.67
2023-04-15T22:19:33.266Z,101801.63
2023-04-15T22:22:13.348Z,101800.23
2023-04-15T22:24:42.178Z,101795.45
2023-04-15T22:27:13.849Z,101796.36
2023-04-15T22:29:49.097Z,101798.16
2023-04-15T22:32:21.985Z,101792.30
2023-04-15T22:34:59.563Z,101790.05
2023-04-15T22:38:05.710Z,101788.39
2023-04-15T22:40:35.012Z,101786.67
2023-04-15T22:43:06.933Z,101788.27
2023-04-15T22:46:20.344Z,101786.44
2023-04-15T22:48:49.659Z,101782.05
2023-04-15T22:51:43.755Z,101780.70
2023-04-15T22:54:24.557Z,101774.98
2023-04-15T22:56:56.533Z,101773.24
2023-04-15T22:59:28.985Z,101775.35
2023-04-15T23:02:00.330Z,101774.17
2023-04-15T23:04:32.848Z,101768.80
2023-04-15T23:07:02.286Z,101761.73
2023-04-15T23:09:31.659Z,101760.03
2023-04-15T23:12:03.869Z,101760.38
2023-04-15T23:14:56.722Z,101758.10
2023-04-15T23:17:29.815Z,101757.10
2023-04-15T23:19:58.998Z,101751.20
2023-04-15T23:22:28.304Z,101748.48
2023-04-15T23:24:57.643Z,101744.92
2023-04-15T23:27:26.597Z,101737.58
2023-04-15T23:30:15.515Z,101734.58
2023-04-15T23:32:48.234Z,101738.73
2023-04-15T23:35:38.759Z,101733.19
2023-04-15T23:38:07.929Z,101731.45
2023-04-15T23:40:37.153Z,101730.41
2023-04-15T23:43:06.279Z,101728.34
2023-04-15T23:45:35.233Z,101727.70
2023-04-15T23:48:04.421Z,101726.04
2023-04-15T23:50:56.093Z,101729.39
2023-04-15T23:53:25.592Z,101727.95
2023-04-15T23:55:58.018Z,101726.80
2023-04-15T23:58:29.796Z,101726.21
